Date,TemperatureHighF,TemperatureAvgF,TemperatureLowF,DewpointHighF,DewpointAvgF,DewpointLowF,HumidityHigh,HumidityAvg,HumidityLow,PressureMaxIn,PressureMinIn,WindSpeedMaxMPH,WindSpeedAvgMPH,GustSpeedMaxMPH,PrecipitationSumIn
2013-1-15,49.0,39.7,30.6,11.2,5.9,1.9,31,25,20,30.24,30.17,8,2,8,0.00
2013-1-16,58.9,35.2,28.8,12.8,5.8,2.7,34,29,16,30.29,30.16,9,2,9,0.00
2013-1-17,70.9,57.9,40.5,22.1,17.2,10.8,30,21,15,30.21,30.10,16,5,16,0.00
2013-1-18,74.2,55.2,41.9,25.8,18.6,15.0,36,25,15,30.20,30.10,6,3,6,0.00
2013-1-19,74.3,56.7,43.7,25.4,20.6,15.7,33,25,15,30.21,30.11,10,2,10,0.00
2013-1-20,75.1,57.9,48.8,33.6,25.1,20.6,34,29,21,30.15,30.02,10,2,10,0.00
2013-1-21,77.8,60.8,48.8,37.7,29.8,24.9,40,32,21,30.11,30.02,12,3,12,0.00
2013-1-22,79.0,62.1,50.2,38.1,31.0,26.9,44,32,19,30.18,30.10,12,3,12,0.00
2013-1-23,82.1,64.4,51.1,38.3,31.0,24.9,38,29,19,30.22,30.13,10,3,10,0.00
2013-1-24,65.9,61.1,57.6,51.5,39.5,29.2,69,47,31,30.24,30.15,13,3,13,0.05
2013-1-25,78.5,63.8,54.9,50.9,46.4,42.9,67,55,35,30.19,30.01,9,2,9,0.00
2013-1-26,68.8,60.3,54.4,57.7,51.3,45.6,92,74,51,30.02,29.93,18,5,18,1.17
2013-1-27,67.9,58.2,51.5,54.4,49.2,46.1,88,73,56,30.03,29.94,10,3,10,0.01
2013-1-28,55.1,49.5,43.2,47.4,39.1,28.8,83,68,53,29.98,29.90,17,7,17,0.01
2013-1-29,50.2,43.0,36.4,33.7,26.3,20.2,78,54,31,30.15,29.96,21,7,21,0.00
2013-1-30,57.2,44.3,34.6,30.3,25.1,22.0,65,48,27,30.27,30.13,15,4,15,0.01
2013-1-31,62.6,47.5,36.4,34.9,28.7,22.0,61,49,31,30.21,30.06,10,2,10,0.00
2013-2-1,69.8,53.4,41.9,34.5,30.1,25.8,57,43,22,30.18,30.08,12,3,12,0.00
2013-2-2,74.2,56.3,43.7,35.7,30.8,24.4,52,40,17,30.22,30.11,10,3,10,0.00
2013-2-3,72.5,59.2,53.3,38.1,33.5,28.5,51,38,25,30.12,29.96,10,3,10,0.00
2013-2-4,69.5,57.5,48.6,43.4,37.9,34.8,60,49,34,30.02,29.95,8,3,8,0.00
2013-2-5,71.8,57.6,46.3,44.6,39.7,36.3,69,53,33,30.02,29.93,10,4,10,0.00
2013-2-6,53.6,51.6,50.0,39.8,38.9,38.3,65,62,56,29.94,29.92,5,3,5,0.00
2013-2-7,69.3,59.0,45.0,41.5,35.8,29.5,68,44,31,30.08,29.95,8,3,8,0.00
2013-2-8,68.4,57.6,47.3,35.0,28.0,20.4,47,34,17,29.95,29.79,15,6,15,0.00
2013-2-9,53.1,44.6,35.6,37.0,28.3,23.0,84,55,38,30.00,29.79,14,4,14,0.12
2013-2-10,58.7,44.5,33.8,29.8,24.6,20.6,67,47,28,30.01,29.91,11,3,11,0.00
2013-2-11,53.8,40.0,34.9,34.0,28.0,21.5,87,64,42,30.12,29.92,14,4,14,0.12
2013-2-12,52.0,40.5,31.3,38.3,30.6,25.3,90,70,45,30.21,30.10,17,4,17,0.00
2013-2-13,59.8,44.4,32.8,33.3,26.9,23.9,71,53,28,30.16,30.05,12,4,12,0.00
2013-2-14,64.3,48.9,35.6,31.3,27.3,23.9,62,45,25,30.14,30.02,15,4,15,0.00
2013-2-15,70.9,55.5,42.8,34.4,26.6,14.3,55,36,16,30.21,30.10,14,4,14,0.00
2013-2-16,78.3,59.3,45.7,22.3,16.6,8.8,31,21,11,30.23,29.99,17,5,19,0.00
2013-2-17,70.6,55.8,48.6,21.6,15.5,9.1,26,21,13,30.00,29.88,14,5,14,0.00
2013-2-18,73.1,55.0,46.3,26.7,20.1,15.7,34,26,16,30.04,29.92,11,4,11,0.00
2013-2-19,73.1,58.5,48.1,28.0,18.3,11.0,41,22,12,29.92,29.73,22,6,22,0.00
2013-2-20,50.8,40.8,32.8,37.2,31.3,26.6,89,71,40,29.88,29.70,23,4,23,0.31
2013-2-21,53.1,41.4,32.2,41.7,33.2,28.7,89,74,52,29.97,29.87,10,3,10,0.39
2013-2-22,54.4,44.5,35.1,40.1,31.8,25.0,88,63,42,30.07,29.91,14,4,14,0.00
2013-2-23,63.9,48.7,34.4,34.5,27.6,24.3,71,47,25,30.06,29.81,10,3,10,0.00
2013-2-24,51.5,45.9,40.7,30.2,21.0,7.0,66,39,18,30.03,29.79,27,9,27,0.00
2013-2-25,58.0,45.3,32.9,23.6,18.0,10.3,46,34,24,30.15,29.99,12,3,12,0.00
2013-2-26,61.2,48.0,34.9,25.6,19.3,13.0,51,34,18,30.04,29.93,17,5,17,0.00
2013-2-27,63.7,49.9,36.4,20.4,14.3,6.8,44,26,12,30.16,30.04,25,5,25,0.00
2013-2-28,67.0,50.9,36.5,20.6,14.2,9.5,38,24,13,30.26,30.13,23,4,23,0.00
2013-3-1,74.9,56.0,40.5,26.8,19.5,12.8,35,25,15,30.29,30.18,8,3,10,0.00
2013-3-2,82.1,62.6,47.3,33.6,25.9,20.3,40,27,13,30.26,30.11,10,3,10,0.00
2013-3-3,78.5,65.2,52.9,32.6,23.9,16.4,32,22,12,30.12,29.95,17,4,17,0.00
2013-3-4,70.6,64.1,55.6,32.0,24.7,16.9,36,23,18,30.07,29.89,15,5,15,0.00
2013-3-5,82.1,63.0,48.6,36.3,30.3,26.0,47,31,18,30.09,29.98,12,4,12,0.00
2013-3-6,80.3,68.2,54.9,35.5,30.3,26.6,39,26,17,30.02,29.92,12,4,12,0.00
2013-3-7,79.6,65.2,54.7,35.2,27.5,20.4,36,26,12,29.97,29.90,17,5,17,0.00
2013-3-8,63.7,55.3,43.7,50.1,38.4,29.7,75,55,32,29.95,29.79,22,6,22,0.17
2013-3-9,52.6,46.1,40.3,39.0,36.1,31.8,83,68,57,30.03,29.93,14,4,14,0.12
2013-3-10,64.3,52.6,44.8,39.9,35.0,28.4,75,54,28,30.11,30.02,20,4,20,0.00
2013-3-11,70.9,55.9,43.4,36.4,32.7,29.9,63,44,23,30.14,30.01,15,4,15,0.00
2013-3-12,79.7,63.4,46.4,38.8,33.7,29.7,54,36,18,30.07,30.00,11,4,11,0.00
2013-3-13,70.9,67.9,64.1,28.4,27.7,26.4,26,22,20,30.11,30.08,7,3,7,0.00
2013-3-14,90.0,72.7,56.3,33.1,27.6,23.9,32,21,8,30.14,30.03,17,4,17,0.00
2013-3-15,90.9,77.9,57.2,32.5,25.6,21.7,27,15,6,30.06,29.96,22,6,22,0.00
2013-3-16,86.9,72.5,58.3,31.2,23.5,15.9,25,16,6,29.98,29.82,22,6,22,0.00
2013-3-17,81.5,69.2,58.9,26.7,21.6,17.5,21,17,10,29.97,29.85,20,7,20,0.00
2013-3-18,80.8,68.0,56.2,36.1,25.9,20.3,35,22,12,30.02,29.93,14,5,16,0.00
2013-3-19,78.1,67.2,56.5,37.3,28.8,23.0,34,25,16,30.07,29.95,16,5,16,0.00
2013-3-20,82.3,68.9,55.4,38.1,30.1,26.6,37,25,15,30.06,29.90,14,3,14,0.00
2013-3-21,76.9,68.4,59.0,39.8,31.8,27.9,34,26,19,29.91,29.79,12,3,12,0.00
2013-3-22,75.8,64.5,59.8,36.0,30.2,27.0,37,28,18,29.85,29.74,14,4,14,0.00
2013-3-23,73.3,63.2,52.6,36.9,22.0,4.5,43,24,7,29.99,29.83,20,6,20,0.00
2013-3-24,74.5,61.8,48.1,17.7,10.2,3.8,22,13,7,30.00,29.89,16,5,16,0.00
2013-3-25,79.9,64.8,49.9,23.1,14.8,6.8,23,15,10,29.99,29.91,16,4,16,0.00
2013-3-26,86.6,70.3,54.9,27.3,19.4,12.8,24,15,6,29.99,29.88,15,5,15,0.00
2013-3-27,87.8,71.2,58.7,28.2,19.9,11.1,22,15,10,30.03,29.91,17,5,17,0.00
2013-3-28,82.6,65.8,59.0,21.9,17.0,11.9,23,16,10,30.09,30.00,11,5,11,0.00
2013-3-29,85.9,71.4,59.4,36.1,21.7,12.7,25,16,7,30.11,30.04,14,4,14,0.00
2013-3-30,66.4,63.1,60.7,24.7,17.2,15.3,21,17,15,30.10,30.05,8,3,8,0.00
2013-3-31,85.0,71.9,56.0,33.7,26.5,19.8,33,20,12,30.07,29.98,9,4,9,0.00
2013-4-1,81.4,71.1,59.6,37.6,28.7,20.0,34,22,16,30.03,29.95,19,6,19,0.00
2013-4-2,76.7,66.2,52.6,27.1,22.2,16.9,32,20,11,29.99,29.92,20,6,20,0.00
2013-4-3,81.7,67.9,54.4,32.9,26.2,21.3,30,22,13,30.06,29.96,16,5,16,0.00
2013-4-4,93.8,73.2,56.9,36.5,25.9,18.4,32,19,7,30.08,29.97,13,3,13,0.00
2013-4-5,87.1,73.6,62.3,34.8,27.6,20.8,25,19,11,30.01,29.93,19,5,19,0.00
2013-4-6,85.9,72.1,59.2,37.3,28.9,20.2,32,21,12,30.01,29.90,14,4,14,0.00
2013-4-7,85.7,72.3,59.0,38.6,32.2,25.4,40,25,12,29.95,29.79,19,4,19,0.00
2013-4-8,84.8,72.8,44.8,40.4,33.3,25.0,80,27,13,29.79,29.50,29,12,29,0.23
2013-4-9,66.1,55.2,45.2,41.9,32.6,21.8,82,48,21,29.88,29.64,22,6,22,0.02
2013-4-10,67.7,56.8,45.5,31.9,28.2,24.8,48,35,21,29.99,29.86,20,5,20,0.00
2013-4-11,79.0,63.0,46.8,35.7,28.3,21.0,49,30,13,29.99,29.80,15,4,15,0.00
2013-4-12,76.5,67.1,55.6,35.5,26.9,22.4,32,23,16,29.86,29.77,17,4,17,0.00
2013-4-13,84.4,69.6,54.0,32.5,25.6,19.1,34,21,10,29.87,29.79,20,5,20,0.00
2013-4-14,86.0,70.2,59.4,39.2,30.6,23.4,34,24,12,29.84,29.72,17,5,17,0.00
2013-4-15,88.4,71.9,59.8,38.9,32.2,25.7,38,25,12,29.85,29.75,19,8,19,0.00
2013-4-16,85.9,70.4,61.0,37.5,31.4,24.6,38,25,13,29.87,29.77,24,8,24,0.00
2013-4-17,67.7,60.2,54.9,40.3,24.7,9.8,53,29,15,30.01,29.80,24,8,24,0.00
2013-4-18,70.6,57.6,43.9,19.4,12.0,8.1,28,18,9,30.11,29.97,19,5,19,0.00
2013-4-19,81.7,64.4,45.2,19.6,12.6,4.7,24,13,5,30.11,29.95,14,4,14,0.00
2013-4-20,83.3,68.0,50.9,21.1,12.9,3.3,17,12,7,29.98,29.90,20,5,20,0.00
2013-4-21,88.9,73.6,58.9,25.3,19.7,13.2,22,13,6,30.05,29.93,19,5,19,0.00
2013-4-22,92.0,76.6,61.9,27.6,21.1,13.9,24,12,3,30.00,29.83,18,4,18,0.00
2013-4-23,88.6,75.7,64.1,27.4,21.6,13.1,19,13,7,29.93,29.84,19,6,19,0.00
2013-4-24,92.5,76.6,65.3,31.0,25.4,19.3,24,16,6,29.96,29.86,22,5,22,0.00
2013-4-25,87.3,73.5,65.3,30.2,26.2,18.9,25,18,8,30.06,29.91,26,7,26,0.00
2013-4-26,86.2,70.8,53.8,33.2,26.7,21.7,33,21,11,30.11,30.04,16,5,16,0.00
2013-4-27,92.3,79.2,59.6,32.0,24.6,19.1,27,14,8,30.08,29.94,18,5,18,0.00
2013-4-28,95.0,79.7,61.9,30.1,23.9,17.3,22,11,5,29.97,29.83,18,5,18,0.00
2013-4-29,97.4,81.1,64.1,31.6,21.5,11.7,16,9,3,29.89,29.75,17,5,17,0.00
2013-4-30,98.5,81.9,68.4,32.5,22.5,14.7,17,10,5,29.90,29.77,21,5,21,0.00
2013-5-1,92.3,78.5,66.6,28.0,22.8,17.4,18,12,5,30.04,29.89,16,5,16,0.00
2013-5-2,99.9,80.4,65.9,33.8,23.1,15.5,19,11,5,30.14,30.02,16,4,16,0.00
2013-5-3,98.5,83.4,66.8,32.6,22.3,12.7,17,8,3,30.04,29.86,21,7,21,0.00
2013-5-4,95.6,78.5,62.6,30.3,21.8,12.4,17,12,5,29.91,29.75,20,5,20,0.00
2013-5-5,94.0,78.5,66.6,37.1,27.4,21.1,32,16,7,29.99,29.84,20,7,20,0.00
2013-5-6,87.7,72.0,60.1,47.2,39.1,30.9,60,33,16,30.01,29.91,15,5,15,0.02
2013-5-7,88.0,71.3,60.3,44.0,35.7,21.4,44,30,10,30.02,29.89,19,6,19,0.00
2013-5-8,82.1,68.8,56.2,43.5,38.1,32.0,50,34,20,30.04,29.93,14,4,14,0.00
2013-5-9,88.2,71.9,59.9,42.4,34.5,20.1,48,28,10,30.02,29.92,16,4,16,0.00
2013-5-10,89.5,72.3,59.0,41.6,34.2,29.3,42,27,14,30.08,29.94,20,4,20,0.00
2013-5-11,97.4,78.5,61.9,41.6,34.6,27.1,37,23,10,30.12,30.03,22,7,22,0.00
2013-5-12,102.1,82.1,69.1,39.3,33.3,26.6,30,19,8,30.16,30.00,22,8,22,0.00
2013-5-13,112.1,83.3,66.2,42.9,29.5,17.6,28,15,5,30.09,29.95,22,7,22,0.01
2013-5-14,103.3,83.7,70.7,38.8,31.2,17.9,28,16,7,30.04,29.90,21,5,21,0.00
2013-5-15,100.3,82.7,69.1,37.4,32.2,26.9,26,17,7,30.06,29.89,23,7,23,0.00
2013-5-16,105.1,83.1,69.5,37.6,30.3,23.2,22,15,5,29.99,29.85,17,6,17,0.00
2013-5-17,104.0,80.6,69.1,36.9,28.9,20.9,28,16,5,29.97,29.88,21,6,21,0.00
2013-5-18,96.1,77.7,65.9,38.4,28.2,20.6,29,17,6,29.99,29.88,18,5,18,0.00
2013-5-19,94.7,77.6,64.8,45.2,35.7,25.4,40,25,8,29.97,29.83,15,5,15,0.00
2013-5-20,93.4,78.2,65.2,40.3,29.9,18.3,35,19,8,29.94,29.85,21,7,21,0.00
2013-5-21,101.5,78.9,63.4,34.6,23.8,15.4,24,12,3,29.97,29.83,14,4,14,0.00
2013-5-22,109.8,83.4,67.9,41.1,26.8,15.7,22,12,5,29.89,29.74,16,5,16,0.00
2013-5-23,102.2,84.8,70.0,35.5,29.9,21.3,24,14,5,29.94,29.83,18,6,18,0.00
2013-5-24,103.7,84.4,68.2,42.6,33.4,21.3,33,16,3,29.99,29.89,16,5,16,0.00
2013-5-25,102.6,84.0,69.1,38.7,31.2,20.4,29,15,2,30.01,29.91,17,5,17,0.00
2013-5-26,102.1,82.4,67.7,35.1,25.7,15.5,22,11,2,30.03,29.92,17,5,17,0.00
2013-5-27,101.9,82.6,65.7,35.2,23.1,12.2,16,9,1,29.96,29.78,15,4,15,0.00
2013-5-28,95.8,80.7,64.3,33.2,27.8,23.3,22,14,5,29.84,29.67,19,6,19,0.00
2013-5-29,96.8,81.1,66.6,48.3,34.3,28.2,35,20,10,29.84,29.73,16,5,16,0.00
2013-5-30,99.7,84.2,70.7,53.2,42.3,31.5,46,27,10,29.92,29.82,15,5,15,0.00
2013-5-31,79.4,79.0,78.8,53.4,53.1,52.8,41,41,40,29.92,29.91,10,7,10,0.00
2013-6-1,113.4,98.8,77.2,43.8,37.9,31.4,26,12,3,29.92,29.78,14,5,14,0.00
2013-6-2,111.8,92.6,76.3,43.0,37.6,28.4,26,15,5,29.89,29.75,17,4,17,0.00
2013-6-3,108.5,101.1,89.3,40.2,34.8,26.4,11,5,3,29.87,29.82,16,6,16,0.00
2013-6-4,106.9,89.5,76.0,44.1,35.2,27.9,25,15,6,29.94,29.84,20,5,20,0.00
2013-6-5,102.6,87.5,71.1,35.7,30.4,22.0,23,12,3,29.96,29.83,16,4,16,0.00
2013-6-6,106.6,89.3,71.5,38.7,29.4,19.2,19,11,5,29.91,29.79,15,5,15,0.00
2013-6-7,108.7,92.3,75.2,40.3,31.6,23.5,21,10,3,29.89,29.74,15,5,15,0.00
2013-6-8,104.8,91.3,76.1,37.5,30.5,23.6,18,10,3,29.93,29.82,21,7,21,0.00
2013-6-9,105.8,91.0,75.8,38.2,31.7,25.0,22,10,3,29.97,29.86,16,6,16,0.00
2013-6-10,107.8,92.0,74.5,39.6,32.2,22.1,22,11,3,29.98,29.86,16,5,16,0.00
2013-6-11,106.6,93.2,76.0,38.7,31.0,20.5,17,9,2,29.98,29.86,19,7,19,0.00
2013-6-12,107.1,93.8,79.2,39.1,32.0,23.8,17,10,6,30.02,29.88,18,7,18,0.00
2013-6-13,103.3,91.5,77.9,45.6,39.6,30.9,29,18,11,30.01,29.85,18,6,18,0.00
2013-6-14,103.9,91.2,78.5,53.9,47.4,37.3,37,24,13,29.97,29.80,17,6,17,0.00
2013-6-15,109.8,92.3,79.4,56.4,48.1,40.0,34,23,14,29.99,29.86,19,5,19,0.00
2013-6-16,109.8,91.7,77.8,53.9,42.8,26.5,35,21,7,30.01,29.88,18,5,18,0.00
2013-6-17,110.0,91.3,74.9,41.1,31.6,23.0,20,11,5,30.01,29.86,15,5,15,0.00
2013-6-18,112.0,91.7,73.4,42.7,30.7,21.6,18,8,1,29.95,29.81,22,4,22,0.00
2013-6-19,113.8,91.6,74.3,44.0,28.0,15.5,13,7,2,29.88,29.75,17,5,17,0.00
2013-6-20,110.5,91.4,75.2,41.8,32.1,23.5,19,10,1,29.92,29.80,22,5,22,0.00
2013-6-21,110.5,92.3,76.5,41.6,34.9,27.1,23,12,2,29.94,29.82,18,5,18,0.00
2013-6-22,108.4,90.8,75.8,40.2,30.9,23.6,18,10,2,29.95,29.80,18,6,18,0.00
2013-6-23,106.9,89.6,75.1,38.9,30.7,23.0,18,11,2,29.91,29.76,20,6,20,0.00
2013-6-24,105.1,88.8,75.2,38.3,31.8,19.0,24,13,3,29.94,29.82,22,6,22,0.00
2013-6-25,110.3,89.5,74.3,41.6,34.1,22.1,29,13,2,30.00,29.89,16,4,16,0.00
2013-6-26,106.2,89.7,73.4,38.4,29.4,20.4,17,10,3,30.08,29.94,16,6,16,0.00
2013-6-27,104.6,91.8,76.1,41.1,32.4,20.8,23,12,7,30.11,29.95,24,7,24,0.00
2013-6-28,110.9,94.1,78.8,41.8,34.2,26.9,18,12,7,30.01,29.86,15,5,15,0.00
2013-6-29,119.0,98.7,83.5,48.0,38.2,30.8,18,13,6,29.95,29.81,27,6,27,0.00
2013-6-30,110.5,96.5,82.8,55.0,47.4,39.1,38,21,11,30.02,29.76,28,8,28,0.00
2013-7-1,110.9,90.3,79.0,64.7,55.6,49.8,51,33,16,29.96,29.84,19,4,27,0.05
2013-7-2,102.2,88.8,68.0,64.9,57.4,50.5,80,38,20,30.10,29.87,24,7,24,0.27
2013-7-3,105.5,91.0,76.0,58.2,51.8,43.7,46,29,17,29.95,29.74,20,6,20,0.00
2013-7-4,89.5,88.5,87.7,50.3,47.5,45.7,28,25,23,29.84,29.81,4,2,4,0.00
2013-7-14,103.3,94.7,84.4,63.1,59.9,56.9,42,32,23,29.96,29.81,18,7,18,0.00
2013-7-15,103.5,88.6,79.4,66.4,60.9,57.3,62,41,23,29.90,29.76,19,5,19,0.02
2013-7-16,97.2,84.0,76.1,66.5,63.7,61.3,64,52,35,30.03,29.88,15,5,15,0.00
2013-7-17,108.7,88.9,75.2,66.0,59.8,51.4,71,42,20,30.02,29.90,18,4,18,0.00
2013-7-18,109.6,91.7,78.8,59.8,54.2,50.1,39,29,18,29.98,29.83,22,9,22,0.00
2013-7-21,79.7,78.3,77.4,66.1,65.1,63.6,68,64,58,30.04,30.02,8,4,8,0.00
2013-7-22,94.7,83.5,72.5,68.3,64.3,58.7,79,55,37,30.08,29.98,17,5,17,0.00
2013-7-23,97.4,86.6,76.7,64.1,60.4,57.2,56,43,29,30.09,29.95,22,6,22,0.00
2013-7-24,97.6,86.4,77.9,67.2,63.1,57.0,69,47,34,30.05,29.94,20,3,20,0.01
2013-7-25,94.7,82.5,76.0,72.6,66.7,62.8,79,60,40,30.11,30.01,14,3,14,0.08
2013-7-26,94.5,82.0,76.1,69.0,65.7,61.4,69,59,39,30.17,30.07,30,4,30,0.00
2013-7-27,106.2,84.6,75.1,69.2,65.1,61.5,69,54,29,30.12,29.95,16,4,16,0.09
2013-7-28,104.6,88.7,76.3,65.8,56.6,43.6,62,38,19,29.99,29.88,17,4,17,0.00
2013-7-29,103.0,89.5,76.9,52.3,47.2,43.2,31,24,17,30.10,29.97,15,4,15,0.00
2013-7-30,103.3,91.5,79.0,57.0,51.6,47.7,38,27,18,30.18,30.05,17,6,17,0.00
2013-7-31,104.4,90.8,81.4,58.4,53.2,48.5,40,29,18,30.14,30.01,17,3,17,0.00
2013-8-1,95.0,87.4,81.4,62.9,58.1,52.6,45,38,32,30.09,30.00,14,5,16,0.00
2013-8-2,99.0,86.2,79.6,68.1,61.8,57.6,58,45,32,30.07,29.98,14,5,14,0.01
2013-8-3,104.9,87.4,73.3,62.7,57.9,52.6,62,40,22,30.09,29.97,14,4,14,0.00
2013-8-4,106.2,89.2,81.4,62.1,57.7,51.6,46,36,22,30.11,29.98,11,3,11,0.00
2013-8-5,101.3,85.4,73.4,61.9,56.3,51.1,67,39,22,30.10,29.96,26,7,26,0.00
2013-8-6,86.4,76.3,69.3,67.4,62.3,57.1,85,64,41,30.09,30.01,20,4,20,0.07
2013-8-7,96.1,82.2,68.9,64.1,56.7,48.6,73,46,23,30.10,29.99,17,4,17,0.00
2013-8-8,104.4,87.5,73.1,54.8,46.0,31.3,47,27,10,30.04,29.92,14,4,18,0.00
2013-8-9,108.4,89.0,72.4,47.7,40.5,33.0,30,20,12,30.04,29.91,20,4,20,0.00
2013-8-10,108.2,89.8,76.7,43.6,38.0,32.0,26,17,10,30.11,29.95,14,5,14,0.00
2013-8-11,108.5,89.7,76.0,58.5,48.8,32.0,39,26,16,30.06,29.91,20,4,21,0.00
2013-8-12,111.1,90.6,75.2,61.6,49.3,30.5,50,27,12,30.02,29.91,15,4,15,0.00
2013-8-13,103.9,90.4,75.2,42.5,36.2,32.2,26,16,10,30.08,29.93,19,6,19,0.00
2013-8-14,105.3,91.3,79.6,59.9,47.6,34.8,40,24,14,30.05,29.91,20,6,20,0.00
2013-8-15,112.9,88.5,72.7,67.6,57.1,52.8,70,37,17,30.07,29.93,30,4,30,1.40
2013-8-16,111.4,89.8,77.8,62.5,57.4,51.8,51,36,18,30.06,29.93,22,4,22,0.00
2013-8-17,105.8,86.2,77.8,61.8,58.5,51.8,52,41,18,30.07,29.93,11,4,11,0.00
2013-8-18,102.6,89.5,85.1,57.7,53.4,50.5,34,30,19,30.07,29.96,17,4,17,0.00
2013-8-19,103.5,90.4,79.4,57.3,53.2,48.6,42,30,18,30.05,29.91,13,4,13,0.00
2013-8-20,84.8,82.3,80.5,60.6,58.2,56.4,46,44,40,30.06,29.97,19,7,19,0.00
2013-8-21,96.5,86.0,76.5,63.8,57.9,53.5,55,40,26,30.05,29.94,14,4,14,0.00
2013-8-22,105.5,83.4,70.2,70.6,57.9,53.4,74,44,20,30.06,29.90,25,4,25,0.71
2013-8-23,99.0,82.4,70.6,62.7,58.8,52.9,64,47,27,30.03,29.84,23,5,23,0.00
2013-8-24,93.6,80.4,71.6,65.7,60.4,54.7,80,52,34,30.05,29.92,22,6,22,0.04
2013-8-25,92.7,78.2,71.6,70.6,66.8,64.2,88,70,41,30.07,29.97,13,3,13,0.12
2013-8-26,103.0,78.8,70.0,76.2,68.5,62.4,90,74,32,30.05,29.91,28,3,28,0.46
2013-8-27,104.4,83.0,68.4,70.7,62.6,53.8,85,56,26,29.98,29.85,21,4,21,0.00
2013-8-28,103.3,84.6,76.0,65.8,62.1,56.9,66,48,29,30.07,29.90,18,5,18,0.00
2013-8-29,92.3,79.5,74.3,73.8,67.0,63.7,76,66,46,30.16,30.05,11,2,11,0.11
2013-8-30,92.5,83.2,73.4,72.7,67.4,60.5,82,60,47,30.14,30.03,11,2,11,0.01
2013-8-31,94.5,83.1,74.2,68.3,64.4,59.5,75,55,34,30.07,29.95,17,5,17,0.00
2013-9-1,97.6,86.5,74.5,66.3,61.4,56.1,66,45,27,30.03,29.91,14,5,14,0.00
2013-9-2,97.4,87.0,77.8,69.6,61.5,55.3,57,43,25,30.06,29.90,13,4,13,0.00
2013-9-3,99.0,83.9,75.2,63.9,59.5,55.1,58,45,25,30.04,29.93,17,4,24,0.00
2013-9-4,105.5,87.7,72.0,62.1,55.3,44.6,62,37,19,30.05,29.93,20,4,20,0.00
2013-9-5,106.9,89.6,76.0,57.0,51.0,44.5,42,28,16,30.03,29.93,20,5,20,0.00
2013-9-6,101.7,85.2,75.8,65.7,56.5,50.1,57,39,24,30.05,29.91,20,4,20,0.20
2013-9-7,95.4,81.4,72.4,69.1,63.0,59.1,72,55,36,30.07,29.93,17,4,17,0.00
2013-9-8,85.0,75.7,70.0,67.2,64.6,59.6,86,69,51,29.98,29.85,13,3,13,0.08
2013-9-9,86.9,75.8,69.5,72.5,65.8,63.1,88,72,53,29.92,29.82,14,3,14,0.19
2013-9-10,86.4,80.1,72.2,67.6,59.7,56.4,74,51,39,30.01,29.92,14,4,14,0.00
2013-9-11,90.4,78.1,66.6,64.1,57.4,51.8,79,52,30,30.06,29.94,17,4,17,0.00
2013-9-12,94.9,80.8,68.2,60.4,55.0,49.1,63,43,26,29.99,29.83,19,4,19,0.00
2013-9-13,103.0,84.9,71.1,66.7,58.7,49.9,67,44,18,29.90,29.74,18,4,18,0.00
2013-9-14,101.9,85.7,73.4,64.5,57.6,48.6,63,41,22,29.86,29.73,12,5,12,0.00
2013-9-15,104.2,85.5,74.3,62.0,55.6,50.8,54,38,20,29.90,29.80,15,3,15,0.00
2013-9-16,109.3,89.8,79.2,62.8,56.9,53.4,46,34,19,29.95,29.83,17,6,17,0.00
2013-9-17,105.1,88.8,78.7,62.0,55.4,44.6,47,34,18,29.92,29.76,15,6,15,0.00
2013-9-18,101.7,88.0,77.2,54.6,46.2,37.0,42,25,15,29.89,29.75,12,4,12,0.00
2013-9-19,98.5,84.7,72.2,52.0,46.0,40.3,42,27,17,29.90,29.78,13,4,13,0.00
2013-9-20,100.6,82.1,73.1,57.0,46.3,39.1,41,29,17,29.95,29.83,11,4,11,0.00
2013-9-21,102.8,84.4,71.3,60.3,54.9,51.8,54,38,22,29.95,29.78,10,5,10,0.01
2013-9-22,93.1,81.3,73.4,65.3,51.8,37.1,55,38,21,29.86,29.75,21,7,21,0.00
2013-9-23,91.3,75.5,62.1,46.1,38.3,30.4,42,28,16,29.98,29.84,14,3,14,0.00
2013-9-24,100.1,79.9,64.8,44.2,37.0,31.7,36,23,12,30.03,29.88,14,4,14,0.00
2013-9-25,96.8,79.9,67.5,34.7,29.9,20.7,26,18,10,29.93,29.75,20,6,20,0.00
2013-9-26,97.2,80.7,69.1,53.4,37.8,22.1,49,23,16,29.84,29.74,17,8,19,0.00
2013-9-27,79.0,72.0,65.3,56.4,43.3,24.7,59,38,18,29.98,29.84,13,6,13,0.00
2013-9-28,88.0,72.6,58.0,44.3,34.9,25.9,34,26,19,30.08,29.97,14,3,14,0.00
2013-9-29,90.4,75.5,62.6,43.9,37.7,33.6,38,27,17,30.12,30.01,9,4,9,0.00
2013-9-30,90.4,79.7,61.4,41.6,32.5,25.5,37,20,11,30.05,29.92,15,5,15,0.00
2013-10-1,94.7,76.7,62.5,39.0,33.2,27.0,30,22,12,30.03,29.92,12,4,12,0.00
2013-10-2,94.3,77.5,64.1,47.9,41.1,36.3,40,29,17,30.02,29.88,12,3,12,0.00
2013-10-3,94.0,77.5,66.8,53.6,42.4,31.6,50,31,15,29.95,29.80,19,5,19,0.00
2013-10-4,84.6,73.4,63.4,45.5,37.2,17.1,41,28,13,30.03,29.88,22,5,22,0.00
2013-10-5,82.3,69.5,57.6,27.3,19.5,12.0,25,16,7,30.13,30.01,19,5,19,0.00
2013-10-6,88.6,71.2,55.8,27.0,19.9,12.8,22,15,8,30.12,30.03,11,3,11,0.00
2013-10-10,68.8,63.2,55.1,47.7,42.9,39.4,58,48,40,29.98,29.93,14,4,14,0.00
2013-10-11,76.5,61.8,50.4,45.6,40.0,34.9,68,47,26,30.00,29.93,12,3,12,0.00
2013-10-12,87.8,68.4,52.9,42.8,36.6,33.2,49,34,17,29.97,29.90,11,3,11,0.00
2013-10-13,88.0,73.4,62.3,47.5,38.4,33.5,42,30,16,30.02,29.91,17,6,17,0.00
2013-10-14,81.4,70.2,60.7,42.8,37.1,31.2,43,31,21,30.06,29.95,17,3,17,0.00
2013-10-15,81.2,67.5,57.6,45.2,33.2,25.1,40,29,17,29.99,29.88,13,4,13,0.00
2013-10-16,78.7,64.9,53.8,31.1,22.8,14.0,34,22,10,30.06,29.97,10,3,10,0.00
2013-10-17,79.2,63.8,50.8,27.7,20.7,16.6,28,20,12,30.05,29.92,12,4,12,0.00
2013-10-18,80.1,64.9,51.5,30.4,23.5,19.1,31,22,13,30.01,29.95,17,4,17,0.00
2013-10-19,84.1,67.3,54.0,27.1,20.5,13.9,29,18,8,30.04,29.96,12,3,12,0.00
2013-10-20,82.4,67.8,53.6,23.0,17.3,12.9,22,15,10,29.98,29.89,12,4,15,0.00
2013-10-21,83.0,68.4,55.6,24.0,18.7,14.2,22,16,8,30.03,29.94,14,5,14,0.00
2013-10-22,92.7,72.0,56.5,28.9,20.7,14.2,22,15,7,30.04,29.93,12,3,12,0.00
2013-10-23,94.7,75.6,61.2,34.0,26.1,18.8,26,17,10,29.97,29.88,12,4,12,0.00
2013-10-24,68.6,65.6,63.5,26.2,24.8,23.7,23,21,19,29.96,29.95,9,4,9,0.00
2013-10-31,72.0,60.6,44.8,33.4,26.0,21.2,43,28,16,30.08,30.00,15,4,15,0.00
2013-11-1,78.8,60.4,46.6,30.5,25.0,20.7,38,27,16,30.11,30.02,11,3,15,0.00
2013-11-2,88.9,68.1,53.1,45.2,23.1,17.1,55,20,10,30.06,29.90,15,5,15,0.02
2013-11-3,79.0,67.9,59.4,49.4,43.8,34.0,61,44,27,29.98,29.79,11,5,12,0.01
2013-11-4,80.8,66.8,56.9,49.8,43.0,33.3,56,43,26,29.88,29.76,12,6,12,0.00
2013-11-5,69.5,61.5,54.0,44.8,41.8,38.0,61,49,34,30.12,29.87,14,4,14,0.00
2013-11-6,74.2,59.4,46.4,39.3,29.9,17.1,63,37,17,30.20,30.12,10,3,10,0.00
2013-11-7,84.2,67.3,55.6,30.3,20.9,5.5,25,18,13,30.16,30.05,14,6,14,0.00
2013-11-8,81.9,67.0,54.7,38.0,31.6,26.5,38,28,18,30.07,29.98,9,3,9,0.00
2013-11-9,84.1,67.2,54.5,40.2,34.9,30.7,41,31,21,30.10,30.02,12,3,12,0.00
2013-11-10,84.8,68.2,54.9,40.4,35.3,32.6,44,31,19,30.12,30.03,12,3,12,0.00
2013-11-11,85.5,69.6,55.8,41.2,35.9,32.4,41,30,18,30.10,30.02,10,3,10,0.00
2013-11-12,90.4,74.0,61.9,45.0,39.3,33.1,36,29,21,30.17,30.10,18,8,18,0.00
2013-11-13,83.2,71.3,61.9,46.5,42.4,39.1,45,36,26,30.15,30.02,19,6,19,0.00
2013-11-14,79.6,65.9,55.3,47.0,40.0,32.6,55,40,24,30.03,29.89,9,3,10,0.00
2013-11-15,77.8,67.5,61.7,50.7,45.1,35.6,66,45,33,29.89,29.70,19,6,19,0.00
2013-11-16,75.4,64.1,55.8,50.4,44.3,34.5,69,51,25,29.91,29.76,17,4,17,0.00
2013-11-17,77.4,69.1,60.3,48.6,45.1,42.5,54,43,34,30.06,30.00,11,3,11,0.00
2013-11-18,77.9,64.5,54.4,47.7,44.1,40.2,66,49,32,30.07,30.01,10,3,10,0.00
2013-11-19,77.6,65.5,52.9,47.0,40.7,37.4,61,42,25,30.03,29.88,11,4,11,0.00
2013-11-20,73.4,63.0,54.0,43.9,39.4,37.4,54,43,29,29.92,29.84,10,4,10,0.00
2013-11-21,76.5,64.2,55.8,48.1,42.6,37.6,61,46,31,29.94,29.87,7,3,7,0.01
2013-11-22,63.9,53.0,45.9,53.3,47.7,43.5,91,83,59,29.94,29.80,14,6,16,1.16
2013-11-23,54.4,49.1,45.7,50.7,45.8,43.3,91,88,79,30.04,29.91,16,4,16,1.36
2013-11-24,58.9,49.4,43.6,48.2,42.7,38.1,91,78,57,30.08,30.00,13,3,13,0.00
2013-11-25,56.5,44.5,38.5,43.3,38.6,34.9,89,80,58,30.13,30.04,12,3,12,0.00
2013-11-26,67.3,58.4,45.7,40.4,35.5,28.4,72,43,33,30.19,30.09,22,10,22,0.00
2013-11-27,67.1,56.5,50.4,34.0,28.8,25.9,41,35,28,30.11,29.97,19,7,19,0.00
2013-11-28,72.7,55.7,43.6,41.0,32.5,26.2,52,42,30,30.06,29.97,12,4,12,0.00
2013-11-29,74.2,58.2,48.2,47.0,39.3,33.5,61,50,33,30.14,30.04,11,2,11,0.00
2013-11-30,70.2,57.7,49.5,47.2,43.1,39.0,70,59,42,30.14,30.04,6,2,6,0.00
2013-12-1,69.8,57.3,51.5,48.2,44.8,42.7,74,64,44,30.17,30.09,11,3,11,0.00
2013-12-2,69.5,55.7,46.1,46.8,41.6,36.6,80,61,39,30.13,29.92,9,3,9,0.00
2013-12-3,72.4,59.6,50.0,40.3,36.3,29.8,61,44,24,29.93,29.76,14,4,14,0.00
2013-12-4,67.3,56.7,45.5,46.5,41.3,36.5,86,58,34,29.90,29.74,19,7,19,0.17
2013-12-5,49.3,44.7,38.7,42.6,34.8,23.4,88,70,49,30.03,29.82,13,4,13,0.11
2013-12-6,51.8,40.4,32.2,29.7,25.4,23.0,70,56,37,30.11,30.01,9,3,9,0.00
2013-12-7,58.1,43.5,32.6,33.0,26.6,22.7,70,53,30,30.02,29.93,11,3,11,0.00
2013-12-8,58.7,49.1,42.8,41.0,36.2,27.7,68,61,50,30.03,29.94,9,2,9,0.00
2013-12-9,49.9,41.8,34.4,26.6,22.2,18.7,64,47,33,30.25,30.06,13,4,13,0.00
2013-12-10,63.0,47.0,34.7,30.2,22.7,17.8,53,39,23,30.18,30.02,10,2,10,0.00
2013-12-11,71.8,53.7,42.5,41.8,30.5,21.1,48,41,32,30.13,30.03,10,2,10,0.00
2013-12-12,72.0,57.4,50.0,45.9,35.4,29.3,49,44,34,30.13,30.02,16,4,16,0.00
2013-12-13,60.7,50.6,40.7,36.1,31.5,27.6,64,49,37,30.12,30.03,12,4,12,0.00
2013-12-14,61.6,52.3,39.6,34.8,30.0,25.1,67,44,29,30.23,30.15,13,3,13,0.00
2013-12-15,66.2,52.9,41.8,32.9,26.6,23.0,48,37,23,30.22,30.11,12,3,15,0.00
2013-12-16,73.1,58.2,47.0,34.3,27.5,22.7,41,32,22,30.18,30.09,8,2,8,0.00
2013-12-17,79.9,61.9,50.2,36.6,28.4,22.7,38,29,18,30.18,30.06,7,2,7,0.00
2013-12-18,77.8,63.1,52.6,36.4,28.6,24.0,36,28,19,30.07,29.85,8,3,8,0.00
2013-12-19,69.7,58.2,51.7,37.7,28.6,25.0,59,33,23,29.85,29.72,17,6,17,0.00
2013-12-20,54.7,47.5,42.8,47.3,38.9,33.5,84,73,49,29.80,29.63,11,4,11,0.52
2013-12-21,52.0,46.8,42.8,39.7,37.6,32.3,85,71,59,30.01,29.77,12,4,12,0.02
2013-12-22,59.0,47.6,39.1,43.9,37.2,32.2,86,68,48,30.19,30.01,7,2,7,0.00
2013-12-23,64.1,49.0,38.9,37.5,34.2,31.2,77,58,36,30.25,30.17,7,2,7,0.00
2013-12-24,65.2,51.3,41.6,34.7,30.2,24.1,55,45,30,30.17,30.07,9,2,9,0.00
2013-12-25,64.6,51.5,41.6,35.2,31.0,24.3,61,47,31,30.18,30.10,9,3,9,0.00
2013-12-26,67.0,53.9,44.6,32.6,26.9,23.5,44,36,26,30.15,30.07,12,3,12,0.00
2013-12-27,69.7,53.9,44.1,31.1,22.8,16.0,41,31,21,30.15,30.06,16,4,16,0.00
2013-12-28,65.0,52.4,42.1,32.9,24.2,16.9,43,34,25,30.08,29.91,10,3,10,0.00
2013-12-29,62.5,52.5,46.1,33.8,28.3,24.7,49,40,31,30.07,29.92,11,4,11,0.00
2013-12-30,64.8,51.4,39.8,32.9,28.8,26.5,61,43,28,30.19,30.07,11,4,11,0.00
2013-12-31,70.9,53.6,42.7,34.7,27.2,23.2,52,38,21,30.18,30.05,8,2,8,0.00
2014-1-1,67.7,53.5,43.6,33.0,27.8,23.0,45,38,25,30.11,30.03,10,2,10,0.00
2014-1-2,74.2,57.3,45.4,34.5,28.6,23.8,48,35,22,30.11,30.01,13,3,13,0.00